Time;durP1;ratioP1;P1;durP2;ratioP2;P2;SDS_P1;SDS_P2;PMS_P1;PMS_P2;Temp;Humidity;BMP_temperature;BMP_pressure;BME280_temperature;BME280_humidity;BME280_pressure;Samples;Min_cycle;Max_cycle;Signal;HPM_P1;HPM_P2
2023/05/27 00:01:32;;;;;;;8.13;1.52;;;10.20;99.90;;;;;;4906257;29;20518;-37
2023/05/27 00:03:57;;;;;;;10.35;1.45;;;10.20;99.90;;;;;;4895810;29;20045;-37
2023/05/27 00:06:23;;;;;;;9.27;1.58;;;10.20;99.90;;;;;;4909463;29;20139;-38
2023/05/27 00:08:49;;;;;;;10.70;2.03;;;10.10;99.90;;;;;;4911223;29;20083;-38
2023/05/27 00:11:14;;;;;;;8.57;1.88;;;10.10;99.90;;;;;;4912714;29;20546;-38
2023/05/27 00:13:40;;;;;;;9.93;2.15;;;10.10;99.90;;;;;;4912209;29;20056;-38
2023/05/27 00:16:06;;;;;;;7.20;1.67;;;10.10;99.90;;;;;;4914507;29;20104;-37
2023/05/27 00:18:32;;;;;;;8.38;1.88;;;10.10;99.90;;;;;;4892710;29;20051;-36
2023/05/27 00:20:59;;;;;;;9.60;2.10;;;10.00;99.90;;;;;;4917524;29;20043;-38
2023/05/27 00:23:25;;;;;;;9.13;2.08;;;10.00;99.90;;;;;;4915659;29;20280;-36
2023/05/27 00:25:50;;;;;;;12.30;2.08;;;10.00;99.90;;;;;;4910863;29;20060;-36
2023/05/27 00:28:16;;;;;;;8.38;1.85;;;10.00;99.90;;;;;;4907539;29;20044;-37
2023/05/27 00:30:42;;;;;;;6.63;1.50;;;9.90;99.90;;;;;;4906534;29;20093;-37
2023/05/27 00:33:07;;;;;;;10.23;2.28;;;9.90;99.90;;;;;;4910118;29;20056;-37
2023/05/27 00:35:33;;;;;;;8.05;2.33;;;9.90;99.90;;;;;;4908538;29;20051;-37
2023/05/27 00:37:58;;;;;;;11.85;2.03;;;9.90;99.90;;;;;;4907809;29;20127;-37
2023/05/27 00:40:28;;;;;;;12.75;2.47;;;9.80;99.90;;;;;;4908290;29;20051;-37
2023/05/27 00:42:54;;;;;;;11.00;2.13;;;9.80;99.90;;;;;;4907071;29;20510;-37
2023/05/27 00:45:21;;;;;;;12.52;2.30;;;9.70;99.90;;;;;;4907620;29;20056;-37
2023/05/27 00:47:47;;;;;;;8.77;2.20;;;9.70;99.90;;;;;;4896575;29;20085;-37
2023/05/27 00:50:12;;;;;;;13.23;2.10;;;9.80;99.90;;;;;;4913171;29;20047;-37
2023/05/27 00:52:38;;;;;;;11.38;3.22;;;9.70;99.90;;;;;;4911769;29;20062;-37
2023/05/27 00:55:05;;;;;;;8.88;2.30;;;9.70;99.90;;;;;;4915547;29;20058;-37
2023/05/27 00:57:31;;;;;;;9.10;3.03;;;9.70;99.90;;;;;;4906315;29;20094;-37
2023/05/27 00:59:57;;;;;;;8.23;2.67;;;9.60;99.90;;;;;;4906603;29;20071;-37
2023/05/27 01:02:23;;;;;;;8.93;2.40;;;9.60;99.90;;;;;;4905121;29;20108;-38
2023/05/27 01:04:49;;;;;;;9.20;2.72;;;9.60;99.90;;;;;;4911131;29;20557;-38
2023/05/27 01:07:29;;;;;;;10.55;2.60;;;9.50;99.90;;;;;;4906834;29;20506;-38
2023/05/27 01:10:10;;;;;;;6.85;2.35;;;9.50;99.90;;;;;;4910775;29;20068;-38
2023/05/27 01:12:48;;;;;;;11.05;2.33;;;9.50;99.90;;;;;;4912376;29;20063;-36
2023/05/27 01:15:14;;;;;;;9.23;2.20;;;9.40;99.90;;;;;;4910851;29;20059;-38
2023/05/27 01:17:44;;;;;;;9.60;1.95;;;9.40;99.90;;;;;;4908373;29;20154;-38
2023/05/27 01:20:13;;;;;;;7.72;1.77;;;9.40;99.90;;;;;;4910361;29;20135;-38
2023/05/27 01:22:41;;;;;;;8.25;1.90;;;9.30;99.90;;;;;;4910845;29;20209;-37
2023/05/27 01:25:08;;;;;;;11.95;2.00;;;9.30;99.90;;;;;;4912925;29;20052;-38
2023/05/27 01:27:34;;;;;;;9.55;2.60;;;9.30;99.90;;;;;;4912311;29;20486;-38
2023/05/27 01:30:00;;;;;;;6.97;2.25;;;9.30;99.90;;;;;;4917729;29;20055;-38
2023/05/27 01:32:41;;;;;;;9.82;1.90;;;9.20;99.90;;;;;;4895822;29;20181;-39
2023/05/27 01:35:31;;;;;;;8.73;2.00;;;9.30;99.90;;;;;;4903336;29;20084;-38
2023/05/27 01:38:01;;;;;;;12.20;2.20;;;9.20;99.90;;;;;;4917235;29;20080;-37
2023/05/27 01:40:30;;;;;;;10.15;2.53;;;9.20;99.90;;;;;;4912323;29;20100;-36
2023/05/27 01:42:59;;;;;;;10.02;2.85;;;9.20;99.90;;;;;;4911810;29;20059;-37
2023/05/27 01:45:25;;;;;;;12.05;3.08;;;9.20;99.90;;;;;;4909360;29;20502;-37
2023/05/27 01:47:52;;;;;;;10.00;3.10;;;9.10;99.90;;;;;;4908147;29;20055;-37
2023/05/27 01:50:18;;;;;;;8.00;2.85;;;9.10;99.90;;;;;;4914985;29;20048;-37
2023/05/27 01:52:43;;;;;;;9.70;2.80;;;9.10;99.90;;;;;;4913914;29;20082;-37
2023/05/27 01:55:10;;;;;;;9.80;2.47;;;9.10;99.90;;;;;;4917093;29;20085;-37
2023/05/27 01:57:36;;;;;;;9.48;2.38;;;9.10;99.90;;;;;;4910828;29;20062;-37
2023/05/27 02:00:04;;;;;;;7.70;2.58;;;9.10;99.90;;;;;;4912421;29;20222;-37
2023/05/27 02:02:31;;;;;;;10.30;1.83;;;9.10;99.90;;;;;;4913246;29;20063;-37
2023/05/27 02:04:56;;;;;;;10.88;2.97;;;9.00;99.90;;;;;;4913317;29;20052;-38
2023/05/27 02:07:22;;;;;;;7.47;2.63;;;9.00;99.90;;;;;;4913160;29;20063;-38
2023/05/27 02:09:49;;;;;;;7.78;1.90;;;9.00;99.90;;;;;;4909931;29;20071;-37
2023/05/27 02:12:15;;;;;;;9.38;3.10;;;9.00;99.90;;;;;;4911903;29;20083;-38
2023/05/27 02:14:40;;;;;;;10.80;2.63;;;9.00;99.90;;;;;;4911317;29;20105;-38
2023/05/27 02:17:07;;;;;;;7.90;2.40;;;9.00;99.90;;;;;;4913924;29;20079;-38
2023/05/27 02:19:33;;;;;;;12.45;2.28;;;8.90;99.90;;;;;;4911124;29;20430;-38
2023/05/27 02:21:59;;;;;;;10.77;2.75;;;9.00;99.90;;;;;;4913219;29;20100;-38
2023/05/27 02:24:24;;;;;;;8.07;2.33;;;8.90;99.90;;;;;;4908118;29;20060;-38
2023/05/27 02:26:50;;;;;;;13.45;2.90;;;8.80;99.90;;;;;;4905327;29;20111;-37
2023/05/27 02:29:16;;;;;;;11.50;2.63;;;;;;;;;;4909972;29;20084;-38
2023/05/27 02:31:42;;;;;;;10.02;3.65;;;8.70;99.90;;;;;;4910667;29;20540;-38
2023/05/27 02:34:08;;;;;;;9.95;3.42;;;;;;;;;;4911253;29;20084;-38
2023/05/27 02:36:34;;;;;;;8.95;2.85;;;8.70;99.90;;;;;;4918094;29;20060;-38
2023/05/27 02:39:00;;;;;;;9.98;4.32;;;8.70;99.90;;;;;;4910512;29;20430;-38
2023/05/27 02:41:26;;;;;;;9.60;2.95;;;8.70;99.90;;;;;;4908643;29;20059;-38
2023/05/27 02:43:52;;;;;;;12.02;3.40;;;8.60;99.90;;;;;;4912120;29;20056;-37
2023/05/27 02:46:17;;;;;;;10.18;2.65;;;8.60;99.90;;;;;;4908870;29;20056;-38
2023/05/27 02:48:43;;;;;;;7.78;2.60;;;8.60;99.90;;;;;;4914508;29;20410;-38
2023/05/27 02:51:09;;;;;;;8.30;2.83;;;8.50;99.90;;;;;;4912548;29;20079;-38
2023/05/27 02:53:34;;;;;;;10.20;3.67;;;8.50;99.90;;;;;;4908627;29;20075;-38
2023/05/27 02:56:00;;;;;;;9.88;3.70;;;8.50;99.90;;;;;;4903357;29;20562;-38
2023/05/27 02:58:26;;;;;;;10.05;3.00;;;8.50;99.90;;;;;;4916645;29;20058;-38
2023/05/27 03:00:51;;;;;;;6.78;3.08;;;8.50;99.90;;;;;;4910395;29;20071;-38
2023/05/27 03:03:17;;;;;;;9.02;2.80;;;8.50;99.90;;;;;;4910220;29;20108;-38
2023/05/27 03:05:43;;;;;;;8.98;2.97;;;8.50;99.90;;;;;;4910362;29;20157;-38
2023/05/27 03:08:09;;;;;;;11.85;2.83;;;8.50;99.90;;;;;;4889678;29;20504;-38
2023/05/27 03:10:35;;;;;;;9.68;3.17;;;8.50;99.90;;;;;;4909454;29;20164;-38
2023/05/27 03:13:01;;;;;;;7.78;2.55;;;8.50;99.90;;;;;;4911004;29;20127;-39
2023/05/27 03:15:30;;;;;;;8.00;2.22;;;8.40;99.90;;;;;;4911608;29;20099;-38
2023/05/27 03:17:57;;;;;;;10.20;3.15;;;8.50;99.90;;;;;;4909523;29;20430;-37
2023/05/27 03:20:22;;;;;;;7.85;2.33;;;8.50;99.90;;;;;;4908019;29;20417;-38
2023/05/27 03:22:48;;;;;;;8.40;2.75;;;8.40;99.90;;;;;;4911598;29;20052;-39
2023/05/27 03:25:14;;;;;;;12.82;2.40;;;8.40;99.90;;;;;;4912888;29;20070;-38
2023/05/27 03:27:40;;;;;;;9.52;2.53;;;8.30;99.90;;;;;;4911238;29;20059;-37
2023/05/27 03:30:07;;;;;;;8.45;3.22;;;8.30;99.90;;;;;;4908809;29;20071;-37
2023/05/27 03:32:33;;;;;;;11.85;2.20;;;8.20;99.90;;;;;;4910381;29;20052;-38
2023/05/27 03:34:59;;;;;;;10.90;2.90;;;8.30;99.90;;;;;;4913445;29;20059;-38
2023/05/27 03:37:25;;;;;;;9.93;2.25;;;8.30;99.90;;;;;;4914237;29;20056;-38
2023/05/27 03:39:50;;;;;;;9.60;2.72;;;8.20;99.90;;;;;;4912893;29;20434;-38
2023/05/27 03:42:17;;;;;;;13.93;2.95;;;8.20;99.90;;;;;;4905491;29;20059;-38
2023/05/27 03:44:43;;;;;;;10.32;2.65;;;8.30;99.90;;;;;;4903028;29;20056;-38
2023/05/27 03:47:09;;;;;;;5.55;2.00;;;8.20;99.90;;;;;;4906774;29;20063;-38
2023/05/27 03:49:34;;;;;;;7.03;2.22;;;8.30;99.90;;;;;;4906903;29;20286;-38
2023/05/27 03:52:00;;;;;;;10.02;2.58;;;8.30;99.90;;;;;;4902548;29;20071;-38
2023/05/27 03:54:26;;;;;;;6.47;2.45;;;8.30;99.90;;;;;;4901532;29;20064;-38
2023/05/27 03:56:51;;;;;;;8.60;2.60;;;8.40;99.90;;;;;;4910384;29;20114;-38
2023/05/27 03:59:20;;;;;;;12.68;2.95;;;8.50;99.90;;;;;;4903479;29;20040;-38
2023/05/27 04:01:47;;;;;;;12.48;3.08;;;8.60;99.90;;;;;;4910578;29;20060;-38
2023/05/27 04:04:13;;;;;;;14.02;2.67;;;8.60;99.90;;;;;;4910528;29;20510;-38
2023/05/27 04:06:38;;;;;;;10.95;2.30;;;8.60;99.90;;;;;;4911277;29;20068;-38
2023/05/27 04:09:04;;;;;;;8.23;2.65;;;8.70;99.90;;;;;;4913227;29;20455;-38
2023/05/27 04:11:30;;;;;;;9.05;2.72;;;8.70;99.90;;;;;;4912989;29;20062;-38
2023/05/27 04:13:56;;;;;;;11.43;2.65;;;8.70;99.90;;;;;;4921923;29;20055;-38
2023/05/27 04:16:24;;;;;;;12.82;2.60;;;8.80;99.90;;;;;;4907440;29;20083;-38
2023/05/27 04:18:51;;;;;;;10.57;2.75;;;8.80;99.90;;;;;;4914052;29;20051;-38
2023/05/27 04:21:18;;;;;;;11.43;2.78;;;8.80;99.90;;;;;;4910377;29;20055;-37
2023/05/27 04:23:44;;;;;;;8.45;1.85;;;8.80;99.90;;;;;;4908530;29;20554;-38
2023/05/27 04:26:10;;;;;;;8.20;2.17;;;8.90;99.90;;;;;;4909525;29;20056;-38
2023/05/27 04:28:35;;;;;;;10.10;2.30;;;8.90;99.90;;;;;;4906062;29;20059;-38
2023/05/27 04:31:01;;;;;;;10.70;2.72;;;8.80;99.90;;;;;;4912887;29;20052;-38
2023/05/27 04:33:27;;;;;;;9.68;2.38;;;8.90;99.90;;;;;;4910541;29;20048;-38
2023/05/27 04:35:53;;;;;;;10.48;2.75;;;8.90;99.90;;;;;;4908365;29;20053;-38
2023/05/27 04:38:22;;;;;;;8.70;2.17;;;9.00;99.90;;;;;;4914099;29;20044;-38
2023/05/27 04:40:52;;;;;;;7.53;2.17;;;9.00;99.90;;;;;;4915253;29;20107;-38
2023/05/27 04:43:21;;;;;;;8.48;2.42;;;9.10;99.90;;;;;;4909302;29;20048;-38
2023/05/27 04:45:47;;;;;;;11.25;2.88;;;9.10;99.90;;;;;;4908948;29;20056;-38
2023/05/27 04:48:14;;;;;;;10.82;2.53;;;9.20;99.90;;;;;;4909589;29;20479;-38
2023/05/27 04:50:40;;;;;;;10.57;2.20;;;9.30;99.90;;;;;;4915186;29;20553;-38
2023/05/27 04:53:06;;;;;;;11.43;2.70;;;9.40;99.90;;;;;;4915000;29;20048;-38
2023/05/27 04:55:32;;;;;;;11.18;2.67;;;9.40;99.90;;;;;;4910024;29;20078;-38
2023/05/27 04:57:59;;;;;;;6.28;2.33;;;9.40;99.90;;;;;;4908926;29;20092;-38
2023/05/27 05:03:10;;;;;;;9.32;2.85;;;9.40;99.90;;;;;;4909229;29;20112;-37
2023/05/27 05:05:36;;;;;;;10.82;2.65;;;9.40;99.90;;;;;;4913639;29;20064;-38
2023/05/27 05:08:02;;;;;;;6.43;2.25;;;9.40;99.90;;;;;;4910033;29;20052;-38
2023/05/27 05:10:30;;;;;;;10.05;2.08;;;9.40;99.90;;;;;;4912109;29;20516;-38
2023/05/27 05:12:55;;;;;;;11.85;3.10;;;9.40;99.90;;;;;;4906915;29;20557;-38
2023/05/27 05:15:21;;;;;;;13.25;3.03;;;9.50;99.90;;;;;;4908856;29;20056;-38
2023/05/27 05:17:47;;;;;;;6.75;2.10;;;9.50;99.90;;;;;;4909559;29;20105;-39
2023/05/27 05:20:12;;;;;;;8.70;1.83;;;9.50;99.90;;;;;;4907022;29;20052;-38
2023/05/27 05:22:38;;;;;;;8.63;2.33;;;9.60;99.90;;;;;;4907209;29;20131;-38
2023/05/27 05:25:04;;;;;;;5.97;2.30;;;9.60;99.90;;;;;;4909637;29;20435;-38
2023/05/27 05:27:30;;;;;;;9.05;2.28;;;9.60;99.90;;;;;;4902514;29;20064;-38
2023/05/27 05:29:56;;;;;;;9.43;1.90;;;9.70;99.90;;;;;;4904535;29;20473;-38
2023/05/27 05:32:21;;;;;;;13.63;2.78;;;9.80;99.90;;;;;;4904257;29;20052;-38
2023/05/27 05:34:47;;;;;;;11.23;2.30;;;9.80;99.90;;;;;;4904309;29;20532;-38
2023/05/27 05:37:12;;;;;;;8.80;2.13;;;9.80;99.90;;;;;;4903632;29;20570;-38
2023/05/27 05:39:42;;;;;;;9.07;1.95;;;9.90;99.90;;;;;;4908019;29;20059;-37
2023/05/27 05:42:08;;;;;;;9.98;2.25;;;10.00;99.90;;;;;;4907504;29;20055;-38
2023/05/27 05:44:34;;;;;;;6.30;1.88;;;10.10;99.90;;;;;;4907693;29;20059;-38
2023/05/27 05:47:00;;;;;;;8.05;2.15;;;10.30;99.90;;;;;;4907605;29;20052;-38
2023/05/27 05:49:25;;;;;;;9.45;2.10;;;10.30;99.90;;;;;;4902761;29;20127;-38
2023/05/27 05:51:51;;;;;;;6.40;1.95;;;10.50;99.90;;;;;;4908463;29;20060;-38
2023/05/27 05:54:17;;;;;;;11.77;2.22;;;10.60;99.90;;;;;;4907951;29;20148;-38
2023/05/27 05:56:42;;;;;;;9.75;3.50;;;10.70;99.90;;;;;;4911578;29;20060;-38
2023/05/27 05:59:08;;;;;;;11.98;2.63;;;10.80;99.90;;;;;;4913003;29;20060;-38
2023/05/27 06:01:33;;;;;;;6.10;2.00;;;10.90;99.90;;;;;;4906974;29;20059;-38
2023/05/27 06:04:03;;;;;;;10.18;2.42;;;11.00;99.90;;;;;;4898718;29;20130;-38
2023/05/27 06:06:30;;;;;;;10.77;2.17;;;11.10;99.90;;;;;;4914654;29;20047;-38
2023/05/27 06:08:56;;;;;;;9.60;1.60;;;11.10;99.90;;;;;;4916058;29;20054;-38
2023/05/27 06:11:21;;;;;;;7.85;2.25;;;11.30;99.90;;;;;;4913094;29;20048;-38
2023/05/27 06:13:47;;;;;;;13.57;2.92;;;11.30;99.90;;;;;;4910024;29;20056;-38
2023/05/27 06:16:13;;;;;;;8.80;1.52;;;11.40;99.90;;;;;;4913304;29;20512;-38
2023/05/27 06:18:39;;;;;;;13.20;3.08;;;11.60;99.90;;;;;;4913629;29;20052;-38
2023/05/27 06:21:04;;;;;;;11.38;2.33;;;11.70;99.90;;;;;;4914986;29;20079;-38
2023/05/27 06:23:30;;;;;;;14.20;2.63;;;11.80;99.90;;;;;;4912194;29;20127;-38
2023/05/27 06:25:56;;;;;;;7.70;2.00;;;11.90;99.90;;;;;;4914930;29;20092;-38
2023/05/27 06:28:21;;;;;;;16.90;2.72;;;12.00;99.90;;;;;;4912632;29;20051;-37
2023/05/27 06:30:47;;;;;;;7.95;1.73;;;12.10;99.90;;;;;;4908560;29;20063;-38
2023/05/27 06:33:13;;;;;;;7.47;1.85;;;12.20;99.90;;;;;;4912694;29;20100;-38
2023/05/27 06:35:38;;;;;;;11.85;2.03;;;12.20;99.90;;;;;;4915602;29;20060;-38
2023/05/27 06:38:05;;;;;;;12.50;2.22;;;12.40;99.90;;;;;;4914048;29;20060;-38
2023/05/27 06:40:30;;;;;;;12.35;2.05;;;12.50;99.90;;;;;;4903732;29;20059;-38
2023/05/27 06:42:56;;;;;;;10.10;1.80;;;12.60;99.90;;;;;;4915006;29;20388;-38
2023/05/27 06:45:22;;;;;;;6.63;1.90;;;12.80;99.90;;;;;;4912640;29;20182;-38
2023/05/27 06:47:47;;;;;;;8.63;1.60;;;12.70;99.90;;;;;;4913137;29;20060;-39
2023/05/27 06:50:13;;;;;;;5.30;1.65;;;12.80;99.90;;;;;;4908801;29;20048;-38
2023/05/27 06:52:39;;;;;;;12.05;2.45;;;12.90;99.90;;;;;;4915105;29;20106;-38
2023/05/27 06:55:05;;;;;;;10.75;2.20;;;13.00;99.90;;;;;;4917017;29;20062;-38
2023/05/27 06:57:31;;;;;;;9.93;1.40;;;13.10;99.90;;;;;;4912477;29;20510;-38
2023/05/27 06:59:56;;;;;;;11.43;1.50;;;13.20;99.90;;;;;;4913244;29;20054;-38
2023/05/27 07:02:22;;;;;;;10.48;2.38;;;13.30;99.90;;;;;;4909216;29;20640;-38
2023/05/27 07:04:47;;;;;;;7.82;1.92;;;13.40;99.90;;;;;;4918648;29;20840;-38
2023/05/27 07:07:13;;;;;;;9.43;1.70;;;13.60;99.90;;;;;;4913244;29;20427;-39
2023/05/27 07:09:39;;;;;;;4.93;1.60;;;13.70;99.90;;;;;;4907136;29;20422;-38
2023/05/27 07:12:06;;;;;;;8.05;2.13;;;13.80;99.90;;;;;;4905776;29;20056;-38
2023/05/27 07:14:32;;;;;;;9.90;2.30;;;14.00;99.90;;;;;;4912470;29;20483;-38
2023/05/27 07:16:58;;;;;;;9.65;2.08;;;13.90;99.90;;;;;;4911012;29;20067;-39
2023/05/27 07:19:23;;;;;;;7.95;1.63;;;14.00;99.90;;;;;;4911272;29;20048;-37
2023/05/27 07:21:49;;;;;;;10.60;2.15;;;14.00;99.90;;;;;;4909572;29;20542;-38
2023/05/27 07:24:15;;;;;;;5.97;1.80;;;14.00;99.90;;;;;;4911513;29;20059;-38
2023/05/27 07:26:40;;;;;;;6.75;1.52;;;14.10;99.90;;;;;;4908449;29;20066;-38
2023/05/27 07:29:06;;;;;;;8.65;1.88;;;14.30;99.90;;;;;;4909543;29;20135;-38
2023/05/27 07:31:32;;;;;;;11.48;2.05;;;14.30;99.90;;;;;;4913834;29;20052;-38
2023/05/27 07:33:57;;;;;;;11.80;1.95;;;14.40;99.90;;;;;;4914925;29;20056;-38
2023/05/27 07:36:23;;;;;;;8.95;2.20;;;14.50;99.90;;;;;;4915345;29;20056;-36
2023/05/27 07:38:49;;;;;;;7.85;2.17;;;14.60;99.90;;;;;;4908219;29;20052;-38
2023/05/27 07:41:14;;;;;;;7.15;1.65;;;14.60;99.90;;;;;;4905134;29;20541;-38
2023/05/27 07:43:40;;;;;;;14.82;2.42;;;14.70;99.90;;;;;;4903575;29;20051;-38
2023/05/27 07:46:06;;;;;;;9.55;1.75;;;14.90;99.90;;;;;;4896872;29;20080;-38
2023/05/27 07:48:31;;;;;;;7.82;1.52;;;14.90;99.90;;;;;;4901738;29;20087;-38
2023/05/27 07:50:57;;;;;;;12.73;2.17;;;15.00;99.90;;;;;;4894307;29;20055;-39
2023/05/27 07:53:23;;;;;;;6.97;1.35;;;15.10;99.90;;;;;;4898690;29;20476;-38
2023/05/27 07:55:49;;;;;;;8.32;2.55;;;15.20;99.90;;;;;;4896614;29;20580;-39
2023/05/27 07:58:14;;;;;;;7.03;2.03;;;15.20;99.90;;;;;;4899871;29;20060;-39
2023/05/27 08:00:40;;;;;;;8.05;2.10;;;15.30;99.90;;;;;;4892459;29;20045;-39
2023/05/27 08:03:06;;;;;;;14.30;2.35;;;15.40;99.90;;;;;;4890446;29;20056;-38
2023/05/27 08:05:32;;;;;;;6.78;1.83;;;15.50;99.90;;;;;;4893115;29;20095;-38
2023/05/27 08:07:58;;;;;;;10.35;1.77;;;15.60;99.90;;;;;;4894482;29;20056;-38
2023/05/27 08:10:25;;;;;;;8.70;2.17;;;15.70;99.90;;;;;;4892138;29;20071;-39
2023/05/27 08:12:50;;;;;;;8.38;1.77;;;15.60;99.90;;;;;;4895566;29;20085;-38
2023/05/27 08:15:16;;;;;;;10.68;2.10;;;15.70;99.90;;;;;;4894951;29;20551;-39
2023/05/27 08:17:43;;;;;;;7.85;1.52;;;15.90;99.90;;;;;;4895304;29;20500;-38
2023/05/27 08:20:10;;;;;;;9.82;2.03;;;15.80;99.90;;;;;;4899386;29;20048;-38
2023/05/27 08:22:37;;;;;;;8.93;2.15;;;15.90;99.90;;;;;;4906470;29;20064;-38
2023/05/27 08:25:03;;;;;;;14.10;1.92;;;16.10;99.90;;;;;;4911438;29;20060;-38
2023/05/27 08:27:47;;;;;;;9.48;2.00;;;16.10;99.90;;;;;;4897710;29;20656;-38
2023/05/27 08:30:13;;;;;;;11.73;1.90;;;16.10;99.90;;;;;;4895673;29;20060;-39
2023/05/27 08:32:41;;;;;;;8.43;2.30;;;16.30;99.90;;;;;;4889934;29;20111;-39
2023/05/27 08:35:07;;;;;;;10.57;2.50;;;16.30;99.90;;;;;;4887560;29;20052;-39
2023/05/27 08:37:33;;;;;;;8.18;2.00;;;16.30;99.90;;;;;;4897349;29;20154;-39
2023/05/27 08:39:59;;;;;;;9.18;2.00;;;16.50;99.90;;;;;;4893755;29;20408;-38
2023/05/27 08:42:25;;;;;;;11.18;2.50;;;16.50;99.90;;;;;;4888656;29;20499;-39
2023/05/27 08:44:51;;;;;;;8.73;1.60;;;16.60;99.90;;;;;;4892133;29;20494;-39
2023/05/27 08:47:17;;;;;;;13.73;2.65;;;16.70;99.90;;;;;;4898627;29;20062;-39
2023/05/27 08:49:43;;;;;;;9.57;1.92;;;16.70;99.90;;;;;;4897586;29;20055;-39
2023/05/27 08:52:18;;;;;;;9.77;2.15;;;16.80;99.90;;;;;;4895785;29;20058;-39
2023/05/27 08:54:44;;;;;;;17.70;2.47;;;16.80;99.90;;;;;;4897238;29;20140;-39
2023/05/27 08:57:14;;;;;;;8.15;2.13;;;17.00;99.90;;;;;;4903056;29;20064;-38
2023/05/27 08:59:40;;;;;;;12.30;2.35;;;16.90;99.90;;;;;;4899914;29;20060;-38
2023/05/27 09:02:14;;;;;;;9.65;2.40;;;17.00;99.90;;;;;;4903541;29;20044;-39
2023/05/27 09:04:40;;;;;;;10.18;2.45;;;17.10;99.90;;;;;;4902650;29;20052;-38
2023/05/27 09:07:07;;;;;;;11.15;2.28;;;17.20;99.90;;;;;;4891330;29;20052;-39
2023/05/27 09:09:32;;;;;;;9.63;2.33;;;17.30;99.90;;;;;;4897065;29;20066;-39
2023/05/27 09:12:02;;;;;;;8.95;2.70;;;17.40;99.90;;;;;;4896645;29;20244;-39
2023/05/27 09:14:29;;;;;;;14.80;2.88;;;17.50;99.90;;;;;;4902934;29;20177;-39
2023/05/27 09:16:55;;;;;;;8.70;2.00;;;17.60;99.90;;;;;;4903862;29;20060;-39
2023/05/27 09:19:22;;;;;;;11.35;2.67;;;17.70;99.90;;;;;;4899862;29;20044;-39
2023/05/27 09:21:55;;;;;;;11.88;2.55;;;17.70;99.90;;;;;;4896637;29;20056;-39
2023/05/27 09:24:24;;;;;;;10.20;2.45;;;17.60;99.90;;;;;;4896308;29;20136;-39
2023/05/27 09:26:53;;;;;;;11.73;2.50;;;17.50;99.90;;;;;;4894251;29;20056;-39
2023/05/27 09:29:20;;;;;;;8.90;2.60;;;17.60;99.90;;;;;;4899020;29;20127;-39
2023/05/27 09:31:46;;;;;;;8.23;2.50;;;17.70;99.90;;;;;;4900981;29;20533;-39
2023/05/27 09:34:13;;;;;;;9.85;2.22;;;17.80;99.90;;;;;;4912456;29;20048;-37
2023/05/27 09:36:47;;;;;;;8.05;2.30;;;17.90;99.90;;;;;;4908449;29;20072;-38
2023/05/27 09:39:14;;;;;;;10.40;2.97;;;18.00;99.90;;;;;;4901739;29;20151;-37
2023/05/27 09:41:41;;;;;;;8.38;2.47;;;18.10;99.90;;;;;;4902449;29;20040;-39
2023/05/27 09:44:07;;;;;;;7.63;1.70;;;18.20;99.90;;;;;;4907197;29;20059;-37
2023/05/27 09:46:34;;;;;;;7.03;1.70;;;18.30;99.90;;;;;;4909087;29;20494;-38
2023/05/27 09:49:02;;;;;;;8.45;2.40;;;18.40;99.90;;;;;;4910667;29;20056;-38
2023/05/27 09:51:27;;;;;;;13.57;3.22;;;18.60;99.90;;;;;;4903991;29;20052;-38
2023/05/27 09:53:57;;;;;;;10.73;2.33;;;18.70;99.90;;;;;;4905961;29;20067;-38
2023/05/27 09:56:27;;;;;;;8.15;2.28;;;18.80;99.90;;;;;;4899483;29;20055;-38
2023/05/27 09:58:55;;;;;;;10.60;2.83;;;18.80;99.90;;;;;;4900295;29;20048;-38
2023/05/27 10:01:25;;;;;;;9.30;2.88;;;18.80;99.90;;;;;;4904158;29;20052;-38
2023/05/27 10:03:51;;;;;;;12.68;2.75;;;18.90;99.90;;;;;;4908942;29;20051;-38
2023/05/27 10:06:18;;;;;;;11.57;2.88;;;19.00;99.90;;;;;;4909226;29;20056;-38
2023/05/27 10:08:44;;;;;;;8.90;2.20;;;19.00;99.90;;;;;;4908823;29;20503;-38
2023/05/27 10:11:13;;;;;;;9.90;2.70;;;19.00;99.90;;;;;;4906807;29;20063;-39
2023/05/27 10:13:40;;;;;;;7.63;2.05;;;19.10;99.90;;;;;;4909268;29;20143;-38
2023/05/27 10:16:06;;;;;;;7.35;2.40;;;19.30;99.90;;;;;;4906851;29;20056;-38
2023/05/27 10:18:33;;;;;;;8.57;3.10;;;19.40;99.90;;;;;;4899121;29;20092;-37
2023/05/27 10:21:00;;;;;;;9.80;2.70;;;19.40;99.90;;;;;;4901601;29;20052;-38
2023/05/27 10:23:33;;;;;;;11.15;2.38;;;19.40;99.90;;;;;;4904290;29;20062;-38
2023/05/27 10:26:06;;;;;;;9.23;2.55;;;19.40;99.90;;;;;;4902541;29;20044;-38
2023/05/27 10:28:35;;;;;;;8.88;2.20;;;19.50;99.90;;;;;;4908594;29;20048;-38
2023/05/27 10:31:19;;;;;;;7.22;2.22;;;19.70;99.90;;;;;;4904994;29;20075;-39
2023/05/27 10:33:49;;;;;;;8.93;2.30;;;19.80;99.90;;;;;;4903886;29;20469;-38
2023/05/27 10:36:26;;;;;;;8.88;3.00;;;20.00;99.90;;;;;;4906465;29;20052;-38
2023/05/27 10:39:16;;;;;;;12.15;2.97;;;20.00;99.90;;;;;;4909716;29;20048;-38
2023/05/27 10:42:02;;;;;;;10.50;3.00;;;20.10;99.90;;;;;;4900889;29;20546;-38
2023/05/27 10:44:36;;;;;;;10.40;2.30;;;20.20;99.90;;;;;;4904859;29;20498;-38
2023/05/27 10:47:10;;;;;;;11.15;2.30;;;20.30;99.90;;;;;;4905591;29;20059;-38
2023/05/27 10:49:38;;;;;;;8.52;2.47;;;;;;;;;;4908320;29;20060;-39
2023/05/27 10:52:17;;;;;;;7.85;2.75;;;;;;;;;;4910476;29;20074;-38
2023/05/27 10:54:48;;;;;;;9.02;2.95;;;;;;;;;;4907631;29;20060;-38
2023/05/27 10:57:14;;;;;;;11.82;3.22;;;20.50;99.90;;;;;;4903506;29;20063;-38
2023/05/27 10:59:55;;;;;;;10.77;2.90;;;20.70;99.90;;;;;;4889480;29;20127;-38
2023/05/27 11:02:21;;;;;;;8.95;2.55;;;20.80;99.90;;;;;;4889276;29;20056;-37
2023/05/27 11:04:50;;;;;;;8.23;2.28;;;20.90;99.90;;;;;;4900505;29;20668;-38
2023/05/27 11:07:21;;;;;;;10.27;2.63;;;21.00;99.90;;;;;;4905145;29;20482;-38
2023/05/27 11:09:51;;;;;;;6.88;1.85;;;21.10;99.90;;;;;;4905918;29;20052;-38
2023/05/27 11:12:19;;;;;;;9.73;2.70;;;21.20;99.90;;;;;;4908737;29;20075;-38
2023/05/27 11:14:52;;;;;;;9.27;2.38;;;21.20;99.90;;;;;;4907626;29;20798;-38
2023/05/27 11:17:18;;;;;;;8.57;2.40;;;21.30;99.90;;;;;;4916300;29;20091;-37
2023/05/27 11:19:45;;;;;;;8.73;2.58;;;21.30;99.90;;;;;;4909962;29;20059;-38
2023/05/27 11:22:12;;;;;;;9.55;2.38;;;21.30;99.90;;;;;;4909540;29;20502;-38
2023/05/27 11:24:38;;;;;;;9.90;2.75;;;21.30;99.90;;;;;;4916186;29;20048;-38
2023/05/27 11:27:11;;;;;;;8.88;2.45;;;;;;;;;;4915368;29;20080;-38
2023/05/27 11:29:38;;;;;;;9.00;2.78;;;;;;;;;;4910142;29;20071;-38
2023/05/27 11:32:05;;;;;;;8.05;2.75;;;21.50;99.90;;;;;;4911163;29;20056;-38
2023/05/27 11:34:34;;;;;;;25.80;4.75;;;21.60;99.90;;;;;;4915246;29;20052;-38
2023/05/27 11:37:07;;;;;;;9.95;2.42;;;21.70;99.90;;;;;;4921753;29;20068;-38
2023/05/27 11:39:32;;;;;;;12.63;2.85;;;21.80;99.90;;;;;;4909345;29;20059;-38
2023/05/27 11:41:58;;;;;;;9.95;2.40;;;21.80;99.90;;;;;;4902331;29;20116;-38
2023/05/27 11:44:25;;;;;;;10.27;2.20;;;21.90;99.90;;;;;;4912990;29;20118;-38
2023/05/27 11:46:57;;;;;;;11.70;2.60;;;22.00;99.90;;;;;;4909494;29;20056;-38
2023/05/27 11:49:23;;;;;;;7.57;2.78;;;22.10;99.90;;;;;;4914084;29;20052;-38
2023/05/27 11:51:55;;;;;;;9.75;2.45;;;22.10;99.90;;;;;;4911636;29;20122;-38
2023/05/27 11:54:25;;;;;;;7.45;3.00;;;22.10;99.90;;;;;;4908330;29;20048;-38
2023/05/27 11:56:53;;;;;;;6.78;2.25;;;22.10;99.90;;;;;;4905212;29;20063;-38
2023/05/27 11:59:19;;;;;;;9.75;2.42;;;22.10;99.90;;;;;;4912956;29;20052;-38
2023/05/27 12:01:45;;;;;;;10.40;2.50;;;22.20;99.90;;;;;;4914690;29;20507;-38
2023/05/27 12:04:11;;;;;;;10.70;2.30;;;22.40;99.90;;;;;;4907046;29;20051;-38
2023/05/27 12:06:37;;;;;;;10.18;2.50;;;22.50;99.90;;;;;;4916315;29;20068;-38
2023/05/27 12:09:04;;;;;;;7.43;2.47;;;22.50;99.90;;;;;;4911472;29;20078;-38
2023/05/27 12:11:30;;;;;;;8.07;2.75;;;22.50;99.90;;;;;;4913847;29;20151;-37
2023/05/27 12:13:55;;;;;;;9.52;2.95;;;22.50;99.90;;;;;;4905845;29;20056;-38
2023/05/27 12:16:21;;;;;;;6.63;2.88;;;22.60;99.90;;;;;;4907384;29;20132;-38
2023/05/27 12:18:47;;;;;;;10.82;2.85;;;22.60;99.90;;;;;;4910588;29;20294;-38
2023/05/27 12:21:14;;;;;;;6.50;2.55;;;22.80;99.90;;;;;;4914873;29;20044;-38
2023/05/27 12:23:40;;;;;;;8.60;3.13;;;22.90;99.90;;;;;;4909697;29;20135;-38
2023/05/27 12:26:06;;;;;;;9.43;2.22;;;23.00;99.90;;;;;;4920428;29;20150;-38
2023/05/27 12:28:31;;;;;;;9.00;2.75;;;23.20;99.90;;;;;;4910540;29;20052;-38
2023/05/27 12:30:57;;;;;;;10.10;2.72;;;23.20;99.90;;;;;;4908538;29;20060;-39
2023/05/27 12:33:23;;;;;;;6.78;2.40;;;23.40;99.90;;;;;;4910051;29;21489;-38
2023/05/27 12:35:49;;;;;;;8.23;2.28;;;23.50;99.90;;;;;;4912070;29;20581;-39
2023/05/27 12:38:15;;;;;;;8.63;3.00;;;23.70;99.90;;;;;;4910689;29;20052;-39
2023/05/27 12:40:40;;;;;;;8.98;3.20;;;23.80;99.90;;;;;;4901991;29;20071;-38
2023/05/27 12:43:06;;;;;;;6.07;2.38;;;23.90;99.90;;;;;;4906581;29;20056;-38
2023/05/27 12:45:32;;;;;;;7.70;2.45;;;24.00;99.90;;;;;;4910810;29;20052;-39
2023/05/27 12:48:01;;;;;;;9.52;2.42;;;24.10;99.90;;;;;;4909423;29;20056;-39
2023/05/27 12:50:27;;;;;;;7.63;2.53;;;24.20;99.90;;;;;;4903626;29;20139;-39